createdAt,value
2018-06-05T00:00:18.243Z,24.51
2018-06-05T00:02:46.467Z,24.61
2018-06-05T00:05:14.830Z,24.54
2018-06-05T00:07:43.054Z,24.43
2018-06-05T00:10:11.199Z,24.10
2018-06-05T00:12:39.385Z,24.02
2018-06-05T00:15:07.688Z,23.63
2018-06-05T00:17:36.360Z,23.70
2018-06-05T00:20:04.790Z,23.88
2018-06-05T00:22:32.900Z,23.74
2018-06-05T00:25:01.039Z,23.58
2018-06-05T00:27:29.366Z,23.76
2018-06-05T00:29:57.666Z,23.70
2018-06-05T00:32:25.802Z,23.64
2018-06-05T00:34:53.898Z,23.63
2018-06-05T00:37:21.999Z,23.38
2018-06-05T00:39:50.891Z,23.27
2018-06-05T00:42:18.986Z,23.33
2018-06-05T00:44:47.126Z,23.40
2018-06-05T00:47:15.383Z,23.35
2018-06-05T00:49:43.508Z,23.35
2018-06-05T00:52:11.634Z,23.16
2018-06-05T00:54:40.051Z,23.06
2018-06-05T00:57:08.604Z,22.78
2018-06-05T00:59:36.715Z,22.84
2018-06-05T01:02:04.815Z,22.93
2018-06-05T01:04:32.962Z,22.69
2018-06-05T01:07:01.286Z,22.54
2018-06-05T01:09:29.363Z,22.83
2018-06-05T01:11:57.447Z,22.76
2018-06-05T01:14:25.510Z,22.69
2018-06-05T01:16:53.627Z,22.68
2018-06-05T01:19:22.025Z,22.99
2018-06-05T01:21:50.212Z,22.84
2018-06-05T01:24:19.258Z,22.77
2018-06-05T01:26:47.360Z,22.49
2018-06-05T01:29:15.550Z,22.50
2018-06-05T01:31:43.721Z,22.49
2018-06-05T01:34:12.645Z,22.58
2018-06-05T01:36:40.720Z,22.41
2018-06-05T01:39:09.625Z,22.58
2018-06-05T01:41:38.203Z,22.41
2018-06-05T01:44:06.417Z,22.43
2018-06-05T01:46:34.515Z,22.45
2018-06-05T01:49:02.636Z,22.65
2018-06-05T01:51:30.875Z,22.46
2018-06-05T01:53:58.998Z,22.40
2018-06-05T01:56:28.184Z,22.38
2018-06-05T01:58:56.278Z,22.42
2018-06-05T02:01:24.371Z,22.39
2018-06-05T02:03:52.474Z,22.15
2018-06-05T02:06:20.692Z,22.29
2018-06-05T02:08:48.769Z,22.22
2018-06-05T02:11:17.519Z,22.11
2018-06-05T02:13:45.625Z,22.17
2018-06-05T02:16:13.714Z,22.24
2018-06-05T02:18:42.358Z,21.91
2018-06-05T02:21:10.486Z,21.98
2018-06-05T02:23:38.595Z,21.92
2018-06-05T02:26:06.749Z,21.97
2018-06-05T02:28:34.938Z,21.90
2018-06-05T02:31:03.018Z,21.75
2018-06-05T02:33:31.100Z,21.79
2018-06-05T02:35:59.493Z,21.86
2018-06-05T02:38:27.672Z,21.71
2018-06-05T02:40:55.753Z,21.89
2018-06-05T02:43:23.910Z,21.45
2018-06-05T02:45:51.986Z,21.77
2018-06-05T02:48:20.088Z,21.56
2018-06-05T02:50:48.193Z,21.62
2018-06-05T02:53:16.300Z,21.41
2018-06-05T02:55:44.374Z,21.54
2018-06-05T02:58:12.531Z,21.22
2018-06-05T03:00:40.930Z,21.32
2018-06-05T03:03:09.047Z,21.27
2018-06-05T03:05:37.394Z,21.27
2018-06-05T03:08:05.500Z,21.26
2018-06-05T03:10:33.593Z,21.22
2018-06-05T03:13:02.202Z,21.15
2018-06-05T03:15:30.599Z,21.19
2018-06-05T03:17:58.706Z,21.46
2018-06-05T03:20:27.293Z,21.21
2018-06-05T03:22:55.433Z,21.13
2018-06-05T03:25:23.539Z,21.25
2018-06-05T03:27:51.682Z,21.07
2018-06-05T03:30:19.774Z,21.23
2018-06-05T03:32:47.869Z,21.00
2018-06-05T03:35:15.950Z,21.20
2018-06-05T03:37:44.043Z,21.10
2018-06-05T03:40:12.148Z,21.28
2018-06-05T03:42:40.351Z,21.25
2018-06-05T03:45:08.471Z,21.24
2018-06-05T03:47:36.602Z,21.57
2018-06-05T03:50:05.367Z,21.29
2018-06-05T03:52:33.535Z,21.62
2018-06-05T03:55:01.812Z,21.30
2018-06-05T03:57:29.896Z,21.43
2018-06-05T03:59:58.014Z,21.25
2018-06-05T04:02:26.185Z,21.64
2018-06-05T04:04:54.281Z,21.42
2018-06-05T04:07:22.424Z,21.53
2018-06-05T04:09:50.525Z,21.47
2018-06-05T04:12:18.597Z,21.57
2018-06-05T04:14:46.730Z,21.92
2018-06-05T04:17:14.830Z,21.44
2018-06-05T04:19:42.935Z,21.47
2018-06-05T04:22:11.001Z,21.59
2018-06-05T04:24:39.109Z,21.88
2018-06-05T04:27:07.207Z,21.81
2018-06-05T04:29:35.285Z,21.53
2018-06-05T04:32:11.355Z,21.65
2018-06-05T04:34:43.744Z,21.55
2018-06-05T04:37:14.766Z,21.86
2018-06-05T04:39:42.920Z,21.62
2018-06-05T04:44:48.675Z,21.72
2018-06-05T04:47:16.845Z,21.42
2018-06-05T04:49:44.987Z,21.60
2018-06-05T04:52:13.177Z,21.54
2018-06-05T04:54:41.262Z,21.76
2018-06-05T04:57:09.938Z,21.80
2018-06-05T04:59:38.037Z,21.67
2018-06-05T05:02:06.210Z,21.90
2018-06-05T05:04:34.535Z,21.97
2018-06-05T05:07:02.651Z,22.22
2018-06-05T05:09:30.743Z,22.18
2018-06-05T05:12:00.554Z,22.30
2018-06-05T05:14:28.651Z,22.20
2018-06-05T05:16:56.807Z,22.12
2018-06-05T05:19:24.930Z,22.48
2018-06-05T05:21:53.103Z,22.47
2018-06-05T05:24:21.292Z,22.16
2018-06-05T05:26:49.379Z,22.39
2018-06-05T05:29:17.467Z,22.35
2018-06-05T05:34:20.662Z,22.80
2018-06-05T05:36:49.086Z,22.54
2018-06-05T05:39:17.182Z,22.64
2018-06-05T05:41:45.254Z,22.44
2018-06-05T05:44:13.414Z,22.65
2018-06-05T05:46:41.499Z,22.78
2018-06-05T05:49:09.609Z,22.90
2018-06-05T05:51:37.678Z,22.41
2018-06-05T05:54:05.794Z,22.46
2018-06-05T05:56:34.083Z,22.72
2018-06-05T05:59:02.170Z,22.74
2018-06-05T06:01:30.321Z,22.83
2018-06-05T06:03:58.410Z,22.85
2018-06-05T06:06:28.050Z,22.69
2018-06-05T06:08:56.121Z,22.86
2018-06-05T06:11:24.184Z,22.63
2018-06-05T06:13:52.244Z,22.40
2018-06-05T06:16:21.111Z,22.60
2018-06-05T06:18:49.174Z,22.66
2018-06-05T06:21:17.273Z,22.67
2018-06-05T06:23:45.327Z,22.62
2018-06-05T06:26:13.668Z,22.92
2018-06-05T06:28:41.968Z,22.77
2018-06-05T06:31:10.220Z,22.82
2018-06-05T06:33:38.673Z,22.88
2018-06-05T06:36:06.815Z,23.33
2018-06-05T06:38:34.956Z,23.12
2018-06-05T06:41:03.091Z,23.39
2018-06-05T06:43:31.173Z,23.33
2018-06-05T06:45:59.384Z,23.39
2018-06-05T06:48:27.510Z,23.48
2018-06-05T06:50:55.682Z,23.26
2018-06-05T06:53:23.781Z,23.14
2018-06-05T06:55:52.042Z,23.24
2018-06-05T06:58:20.130Z,23.38
2018-06-05T07:00:48.296Z,23.38
2018-06-05T07:03:16.410Z,23.49
2018-06-05T07:05:44.828Z,23.31
2018-06-05T07:08:12.970Z,23.48
2018-06-05T07:10:41.046Z,23.59
2018-06-05T07:13:09.141Z,23.81
2018-06-05T07:15:37.478Z,23.86
2018-06-05T07:18:05.583Z,24.03
2018-06-05T07:20:33.658Z,23.94
2018-06-05T07:23:01.786Z,23.83
2018-06-05T07:25:29.875Z,24.20
2018-06-05T07:27:58.022Z,24.29
2018-06-05T07:30:26.100Z,24.20
2018-06-05T07:32:54.174Z,24.11
2018-06-05T07:35:22.255Z,24.21
2018-06-05T07:37:50.358Z,24.18
2018-06-05T07:40:18.607Z,24.29
2018-06-05T07:42:46.683Z,24.47
2018-06-05T07:45:15.603Z,24.47
2018-06-05T07:47:43.678Z,24.59
2018-06-05T07:50:11.799Z,24.36
2018-06-05T07:52:39.902Z,24.53
2018-06-05T07:55:07.995Z,24.41
2018-06-05T07:57:36.096Z,24.63
2018-06-05T08:00:04.448Z,24.75
2018-06-05T08:02:32.870Z,24.70
2018-06-05T08:05:01.054Z,24.60
2018-06-05T08:07:29.145Z,24.76
2018-06-05T08:09:57.235Z,24.97
2018-06-05T08:12:25.351Z,25.01
2018-06-05T08:14:53.650Z,25.09
2018-06-05T08:17:21.751Z,24.86
2018-06-05T08:19:49.802Z,24.89
2018-06-05T08:22:17.905Z,24.87
2018-06-05T08:24:46.404Z,24.86
2018-06-05T08:27:15.379Z,25.13
2018-06-05T08:29:43.562Z,25.02
2018-06-05T08:32:16.610Z,25.02
2018-06-05T08:34:45.454Z,25.15
2018-06-05T08:37:14.806Z,25.30
2018-06-05T08:39:43.362Z,25.27
2018-06-05T08:42:11.419Z,25.17
2018-06-05T08:44:39.489Z,25.23
2018-06-05T08:47:07.615Z,25.25
2018-06-05T08:49:35.699Z,25.48
2018-06-05T08:52:03.972Z,25.53
2018-06-05T08:54:32.279Z,25.41
2018-06-05T08:57:00.412Z,25.42
2018-06-05T08:59:28.480Z,25.43
2018-06-05T09:01:56.571Z,25.48
2018-06-05T09:04:24.937Z,25.61
2018-06-05T09:06:53.033Z,25.61
2018-06-05T09:09:21.435Z,25.51
2018-06-05T09:11:49.470Z,25.56
2018-06-05T09:14:17.616Z,25.75
2018-06-05T09:16:46.124Z,25.84
2018-06-05T09:19:15.019Z,25.78
2018-06-05T09:21:43.083Z,25.88
2018-06-05T09:24:11.157Z,25.88
2018-06-05T09:26:39.206Z,26.06
2018-06-05T09:29:07.323Z,26.15
2018-06-05T09:31:35.884Z,26.17
2018-06-05T09:34:04.362Z,26.21
2018-06-05T09:36:32.839Z,26.27
2018-06-05T09:39:01.294Z,26.31
2018-06-05T09:41:29.484Z,26.27
2018-06-05T09:43:57.659Z,26.39
2018-06-05T09:46:25.730Z,26.40
2018-06-05T09:48:54.069Z,26.44
2018-06-05T09:51:22.135Z,26.52
2018-06-05T09:53:50.206Z,26.53
2018-06-05T09:56:18.306Z,26.49
2018-06-05T09:58:46.559Z,26.59
2018-06-05T10:05:46.258Z,26.62
2018-06-05T10:08:14.334Z,26.77
2018-06-05T10:10:42.413Z,26.79
2018-06-05T10:13:11.324Z,26.95
2018-06-05T10:15:39.428Z,26.96
2018-06-05T10:18:07.531Z,27.03
2018-06-05T10:20:35.656Z,27.08
2018-06-05T10:23:04.097Z,27.06
2018-06-05T10:25:32.262Z,27.09
2018-06-05T10:28:00.416Z,27.21
2018-06-05T10:30:28.520Z,27.28
2018-06-05T10:32:57.295Z,27.35
2018-06-05T10:35:25.530Z,27.36
2018-06-05T10:37:54.377Z,27.35
2018-06-05T10:40:22.505Z,27.48
2018-06-05T10:42:50.663Z,27.71
2018-06-05T10:45:18.808Z,27.77
2018-06-05T10:47:46.907Z,27.63
2018-06-05T10:50:18.370Z,27.79
2018-06-05T10:52:46.931Z,27.91
2018-06-05T10:55:16.003Z,27.84
2018-06-05T10:57:44.079Z,28.11
2018-06-05T11:00:12.236Z,28.13
2018-06-05T11:02:40.483Z,28.25
2018-06-05T11:05:08.589Z,28.27
2018-06-05T11:07:36.670Z,28.34
2018-06-05T11:10:04.747Z,28.43
2018-06-05T11:12:33.304Z,28.43
2018-06-05T11:15:01.454Z,28.54
2018-06-05T11:17:29.568Z,28.73
2018-06-05T11:19:57.981Z,28.96
2018-06-05T11:22:26.126Z,29.33
2018-06-05T11:24:54.250Z,29.78
2018-06-05T11:27:22.358Z,29.96
2018-06-05T11:29:50.542Z,30.00
2018-06-05T11:32:18.950Z,30.04
2018-06-05T11:34:47.245Z,30.63
2018-06-05T11:37:16.758Z,31.10
2018-06-05T11:39:45.168Z,31.46
2018-06-05T11:42:13.369Z,32.09
2018-06-05T11:44:41.447Z,32.35
2018-06-05T11:47:09.653Z,32.82
2018-06-05T11:49:37.717Z,33.43
2018-06-05T11:52:05.764Z,33.54
2018-06-05T11:54:33.828Z,33.28
2018-06-05T11:57:01.884Z,33.67
2018-06-05T11:59:29.997Z,34.39
2018-06-05T12:01:58.207Z,34.60
2018-06-05T12:04:26.275Z,35.13
2018-06-05T12:06:54.512Z,35.31
2018-06-05T12:09:22.615Z,35.45
2018-06-05T12:11:50.699Z,36.29
2018-06-05T12:14:18.755Z,36.68
2018-06-05T12:16:46.909Z,37.77
2018-06-05T12:19:15.904Z,37.65
2018-06-05T12:21:44.622Z,38.49
2018-06-05T12:24:13.214Z,39.10
2018-06-05T12:26:41.378Z,38.47
2018-06-05T12:29:09.471Z,38.29
2018-06-05T12:31:37.555Z,37.08
2018-06-05T12:34:06.071Z,37.22
2018-06-05T12:36:34.716Z,37.06
2018-06-05T12:39:03.360Z,36.82
2018-06-05T12:41:31.757Z,37.72
2018-06-05T12:44:00.392Z,38.33
2018-06-05T12:46:28.506Z,39.43
2018-06-05T12:48:56.611Z,39.05
2018-06-05T12:51:25.146Z,39.11
2018-06-05T12:53:53.334Z,39.10
2018-06-05T12:56:21.435Z,39.34
2018-06-05T12:58:49.529Z,38.91
2018-06-05T13:01:17.729Z,39.65
2018-06-05T13:03:46.575Z,40.56
2018-06-05T13:06:14.650Z,40.91
2018-06-05T13:08:42.971Z,41.30
2018-06-05T13:11:11.038Z,41.09
2018-06-05T13:13:39.115Z,41.72
2018-06-05T13:16:07.214Z,41.38
2018-06-05T13:18:35.318Z,40.33
2018-06-05T13:21:04.239Z,40.78
2018-06-05T13:23:32.435Z,40.05
2018-06-05T13:26:00.608Z,40.93
2018-06-05T13:28:28.742Z,40.87
2018-06-05T13:30:57.374Z,40.03
2018-06-05T13:33:26.192Z,40.62
2018-06-05T13:35:54.670Z,40.24
2018-06-05T13:38:22.793Z,41.58
2018-06-05T13:40:50.924Z,41.76
2018-06-05T13:43:19.035Z,42.38
2018-06-05T13:45:47.164Z,40.27
2018-06-05T13:48:15.508Z,40.43
2018-06-05T13:50:43.684Z,39.15
2018-06-05T13:53:11.956Z,38.82
2018-06-05T13:55:40.111Z,38.75
2018-06-05T13:58:08.393Z,39.17
2018-06-05T14:00:36.532Z,39.28
2018-06-05T14:03:04.696Z,38.90
2018-06-05T14:05:33.007Z,39.91
2018-06-05T14:08:01.155Z,39.37
2018-06-05T14:10:29.352Z,40.29
2018-06-05T14:12:57.554Z,39.38
2018-06-05T14:15:25.646Z,39.94
2018-06-05T14:17:53.883Z,40.49
2018-06-05T14:20:21.952Z,40.92
2018-06-05T14:22:50.208Z,37.90
2018-06-05T14:25:18.655Z,38.31
2018-06-05T14:27:46.824Z,38.24
2018-06-05T14:30:15.255Z,38.90
2018-06-05T14:32:43.417Z,38.60
2018-06-05T14:35:11.590Z,40.06
2018-06-05T14:37:39.727Z,40.20
2018-06-05T14:40:07.834Z,39.84
2018-06-05T14:42:35.935Z,41.08
2018-06-05T14:45:04.065Z,40.33
2018-06-05T14:47:32.320Z,41.09
2018-06-05T14:50:00.466Z,40.83
2018-06-05T14:52:29.057Z,40.45
2018-06-05T14:54:57.452Z,40.38
2018-06-05T14:57:25.518Z,41.25
2018-06-05T14:59:53.631Z,40.42
2018-06-05T15:02:21.984Z,39.83
2018-06-05T15:04:50.143Z,40.00
2018-06-05T15:07:18.327Z,40.07
2018-06-05T15:09:47.423Z,38.49
2018-06-05T15:12:16.003Z,38.27
2018-06-05T15:14:44.366Z,38.37
2018-06-05T15:17:12.495Z,38.52
2018-06-05T15:19:40.805Z,38.18
2018-06-05T15:22:09.136Z,39.08
2018-06-05T15:27:10.326Z,39.04
2018-06-05T15:29:38.512Z,39.51
2018-06-05T15:32:06.838Z,38.78
2018-06-05T15:34:34.983Z,38.13
2018-06-05T15:37:03.144Z,37.23
2018-06-05T15:39:31.306Z,37.65
2018-06-05T15:42:02.485Z,38.25
2018-06-05T15:44:34.051Z,38.57
2018-06-05T15:47:02.128Z,38.77
2018-06-05T15:49:30.240Z,39.96
2018-06-05T15:51:58.362Z,39.18
2018-06-05T15:54:26.591Z,39.12
2018-06-05T15:56:54.662Z,38.94
2018-06-05T15:59:22.722Z,38.51
2018-06-05T16:01:50.847Z,36.36
2018-06-05T16:04:18.953Z,35.46
2018-06-05T16:06:47.420Z,35.13
2018-06-05T16:09:15.661Z,35.17
2018-06-05T16:11:43.730Z,34.68
2018-06-05T16:14:11.886Z,34.42
2018-06-05T16:16:40.007Z,33.83
2018-06-05T16:19:08.110Z,32.92
2018-06-05T16:21:36.237Z,31.97
2018-06-05T16:24:04.324Z,32.20
2018-06-05T16:26:32.407Z,31.63
2018-06-05T16:29:00.574Z,31.50
2018-06-05T16:31:28.847Z,31.48
2018-06-05T16:33:57.170Z,31.63
2018-06-05T16:36:26.084Z,31.48
2018-06-05T16:38:54.212Z,32.41
2018-06-05T16:41:22.732Z,32.04
2018-06-05T16:43:50.844Z,32.27
2018-06-05T16:46:19.050Z,32.38
2018-06-05T16:48:47.573Z,32.83
2018-06-05T16:51:15.651Z,32.39
2018-06-05T16:53:43.829Z,32.17
2018-06-05T16:56:11.901Z,31.90
2018-06-05T16:58:40.332Z,32.43
2018-06-05T17:01:08.457Z,32.66
2018-06-05T17:03:36.766Z,32.50
2018-06-05T17:06:04.956Z,32.44
2018-06-05T17:08:33.283Z,32.31
2018-06-05T17:11:01.480Z,32.29
2018-06-05T17:13:29.559Z,31.96
2018-06-05T17:15:57.632Z,31.77
2018-06-05T17:18:26.226Z,31.74
2018-06-05T17:20:54.355Z,31.83
2018-06-05T17:23:22.435Z,32.10
2018-06-05T17:25:50.940Z,31.49
2018-06-05T17:28:19.087Z,31.48
2018-06-05T17:30:47.692Z,31.32
2018-06-05T17:33:15.795Z,31.23
2018-06-05T17:35:44.043Z,31.55
2018-06-05T17:38:12.140Z,31.13
2018-06-05T17:40:40.435Z,31.11
2018-06-05T17:43:08.608Z,31.15
2018-06-05T17:45:36.751Z,31.19
2018-06-05T17:48:04.902Z,31.09
2018-06-05T17:50:33.146Z,31.43
2018-06-05T17:53:01.409Z,31.12
2018-06-05T17:55:29.730Z,31.01
2018-06-05T17:57:57.835Z,30.95
2018-06-05T18:00:25.927Z,30.77
2018-06-05T18:02:54.000Z,30.82
2018-06-05T18:05:22.212Z,30.62
2018-06-05T18:07:50.353Z,30.39
2018-06-05T18:10:18.501Z,30.16
2018-06-05T18:12:46.587Z,30.10
2018-06-05T18:15:16.798Z,30.50
2018-06-05T18:17:45.153Z,30.59
2018-06-05T18:20:13.226Z,30.70
2018-06-05T18:22:41.899Z,30.55
2018-06-05T18:25:11.035Z,30.42
2018-06-05T18:27:39.339Z,29.89
2018-06-05T18:30:07.405Z,30.29
2018-06-05T18:32:35.471Z,30.28
2018-06-05T18:35:03.576Z,30.10
2018-06-05T18:37:31.640Z,29.99
2018-06-05T18:39:59.729Z,29.92
2018-06-05T18:42:27.846Z,29.71
2018-06-05T18:44:56.010Z,29.78
2018-06-05T18:47:24.245Z,29.29
2018-06-05T18:49:52.363Z,29.75
2018-06-05T18:52:20.448Z,29.48
2018-06-05T18:54:48.535Z,29.99
2018-06-05T18:57:17.217Z,29.41
2018-06-05T18:59:45.279Z,29.41
2018-06-05T19:02:13.550Z,29.22
2018-06-05T19:04:41.730Z,29.33
2018-06-05T19:07:09.933Z,29.26
2018-06-05T19:09:38.026Z,29.26
2018-06-05T19:12:06.485Z,29.19
2018-06-05T19:14:34.602Z,29.25
2018-06-05T19:17:02.849Z,28.80
2018-06-05T19:19:31.066Z,28.90
2018-06-05T19:21:59.124Z,29.06
2018-06-05T19:24:27.483Z,28.90
2018-06-05T19:26:55.583Z,29.07
2018-06-05T19:29:23.774Z,28.72
2018-06-05T19:31:51.872Z,28.79
2018-06-05T19:34:19.947Z,28.21
2018-06-05T19:36:48.255Z,28.77
2018-06-05T19:39:16.907Z,28.40
2018-06-05T19:41:45.343Z,28.37
2018-06-05T19:44:13.451Z,28.40
2018-06-05T19:46:41.620Z,28.22
2018-06-05T19:49:09.652Z,28.37
2018-06-05T19:51:37.832Z,28.06
2018-06-05T19:54:05.994Z,28.02
2018-06-05T19:56:34.101Z,28.08
2018-06-05T19:59:02.225Z,27.91
2018-06-05T20:01:30.467Z,27.89
2018-06-05T20:03:58.570Z,27.98
2018-06-05T20:06:26.710Z,27.94
2018-06-05T20:08:54.787Z,27.72
2018-06-05T20:11:22.892Z,27.69
2018-06-05T20:13:51.143Z,27.65
2018-06-05T20:16:19.266Z,27.61
2018-06-05T20:18:48.414Z,27.57
2018-06-05T20:21:16.730Z,27.43
2018-06-05T20:23:44.861Z,27.32
2018-06-05T20:26:12.986Z,27.28
2018-06-05T20:28:41.138Z,27.34
2018-06-05T20:31:09.239Z,27.10
2018-06-05T20:33:37.555Z,27.35
2018-06-05T20:36:05.739Z,27.16
2018-06-05T20:38:34.047Z,27.09
2018-06-05T20:41:03.215Z,26.93
2018-06-05T20:43:31.358Z,27.26
2018-06-05T20:45:59.959Z,27.22
2018-06-05T20:48:28.095Z,27.14
2018-06-05T20:50:56.378Z,26.60
2018-06-05T20:53:24.901Z,26.66
2018-06-05T20:55:54.836Z,26.90
2018-06-05T20:58:23.337Z,26.78
2018-06-05T21:00:52.422Z,26.51
2018-06-05T21:03:21.198Z,26.38
2018-06-05T21:05:49.625Z,26.09
2018-06-05T21:08:20.294Z,25.91
2018-06-05T21:10:48.680Z,26.34
2018-06-05T21:13:17.461Z,26.38
2018-06-05T21:15:45.558Z,26.00
2018-06-05T21:18:13.951Z,26.32
2018-06-05T21:20:42.192Z,26.39
2018-06-05T21:23:10.399Z,26.04
2018-06-05T21:25:38.726Z,26.03
2018-06-05T21:28:07.603Z,25.77
2018-06-05T21:30:35.962Z,25.53
2018-06-05T21:33:04.635Z,25.79
2018-06-05T21:35:32.764Z,25.58
2018-06-05T21:38:00.860Z,25.73
2018-06-05T21:40:29.454Z,25.46
2018-06-05T21:42:57.592Z,25.56
2018-06-05T21:45:25.735Z,25.69
2018-06-05T21:47:53.940Z,25.58
2018-06-05T21:50:22.016Z,25.50
2018-06-05T21:52:50.145Z,25.25
2018-06-05T21:55:19.190Z,25.08
2018-06-05T21:57:47.882Z,24.95
2018-06-05T22:00:18.496Z,25.01
2018-06-05T22:02:46.584Z,25.29
2018-06-05T22:05:14.686Z,25.04
2018-06-05T22:07:42.791Z,24.98
2018-06-05T22:10:11.535Z,24.91
2018-06-05T22:12:39.648Z,24.92
2018-06-05T22:15:08.084Z,25.32
2018-06-05T22:17:36.200Z,24.86
2018-06-05T22:20:04.653Z,24.93
2018-06-05T22:22:33.202Z,24.95
2018-06-05T22:25:01.429Z,24.51
2018-06-05T22:27:29.573Z,24.96
2018-06-05T22:29:57.663Z,24.72
2018-06-05T22:32:25.791Z,24.49
2018-06-05T22:34:53.895Z,24.56
2018-06-05T22:37:22.008Z,24.60
2018-06-05T22:39:50.071Z,24.36
2018-06-05T22:42:19.118Z,24.83
2018-06-05T22:44:47.348Z,24.47
2018-06-05T22:47:15.735Z,24.33
2018-06-05T22:49:43.817Z,24.34
2018-06-05T22:52:11.917Z,24.19
2018-06-05T22:54:40.046Z,24.02
2018-06-05T22:57:08.147Z,23.98
2018-06-05T22:59:36.282Z,24.01
2018-06-05T23:02:04.417Z,23.98
2018-06-05T23:04:32.511Z,23.69
2018-06-05T23:07:00.582Z,23.96
2018-06-05T23:09:28.665Z,24.18
2018-06-05T23:11:56.758Z,24.17
2018-06-05T23:14:24.882Z,24.19
2018-06-05T23:16:53.173Z,24.39
2018-06-05T23:19:21.286Z,24.16
2018-06-05T23:21:49.448Z,24.67
2018-06-05T23:24:17.658Z,24.66
2018-06-05T23:26:45.803Z,24.26
2018-06-05T23:29:13.903Z,24.17
2018-06-05T23:31:42.039Z,23.95
2018-06-05T23:34:10.236Z,23.99
2018-06-05T23:36:38.362Z,23.99
2018-06-05T23:39:07.403Z,23.78
2018-06-05T23:41:35.805Z,23.92
2018-06-05T23:44:03.929Z,23.91
2018-06-05T23:46:32.079Z,23.49
2018-06-05T23:49:00.188Z,23.46
2018-06-05T23:51:29.475Z,23.59
2018-06-05T23:53:57.694Z,23.46
2018-06-05T23:56:25.771Z,23.39
2018-06-05T23:58:54.204Z,23.55
